Catalina, Canada
Current Conditions -  °F | °C
As of 10:28 AM on Thursday 30 Oct 2014 (Local Time) from CYYT Reporting Station
Drizzle Drizzle  
Wind Chill: 57°   Ceiling: 600
Heat Index: 57°   Visibility: 8mi
Dew Point: 57°   Wind: 15mph
Humidity: 100%   Direction: 230°SW
Pressure: 29.81"   Gusts: 24mph
Location:  48.52°N, 53.08°W
Report Text: CYYT 301228Z 23013G21KT 8SM -DZ OVC006 14/14 A2981 RMK SF8 SLP098 DENSITY ALT 600FT
Loading
Personal Weather Stations






























Interactive Weather Map
Tropical Storm Tracking
New forecast layout! Learn more

10-Day Weather Forecast

Advertisements
Track Severe Weather on mobile